sensor_id;sensor_type;location;lat;lon;timestamp;P1;durP1;ratioP1;P2;durP2;ratioP2
71091;SDS011;58751;50.708;7.134;2022-07-12T00:01:27;22.10;;;20.30;;
71091;SDS011;58751;50.708;7.134;2022-07-12T00:03:52;21.60;;;19.70;;
71091;SDS011;58751;50.708;7.134;2022-07-12T00:06:19;21.90;;;20.10;;
71091;SDS011;58751;50.708;7.134;2022-07-12T00:08:44;20.75;;;19.05;;
71091;SDS011;58751;50.708;7.134;2022-07-12T00:11:09;20.67;;;18.77;;
71091;SDS011;58751;50.708;7.134;2022-07-12T00:13:35;21.43;;;19.60;;
71091;SDS011;58751;50.708;7.134;2022-07-12T00:16:00;21.60;;;19.80;;
71091;SDS011;58751;50.708;7.134;2022-07-12T00:18:25;23.03;;;20.83;;
71091;SDS011;58751;50.708;7.134;2022-07-12T00:20:50;22.63;;;20.70;;
71091;SDS011;58751;50.708;7.134;2022-07-12T00:23:17;20.37;;;18.67;;
71091;SDS011;58751;50.708;7.134;2022-07-12T00:25:42;21.23;;;19.30;;
71091;SDS011;58751;50.708;7.134;2022-07-12T00:28:08;21.70;;;19.70;;
71091;SDS011;58751;50.708;7.134;2022-07-12T00:30:33;22.47;;;20.47;;
71091;SDS011;58751;50.708;7.134;2022-07-12T00:32:59;22.10;;;20.00;;
71091;SDS011;58751;50.708;7.134;2022-07-12T00:35:24;21.47;;;19.67;;
71091;SDS011;58751;50.708;7.134;2022-07-12T00:37:49;22.57;;;20.53;;
71091;SDS011;58751;50.708;7.134;2022-07-12T00:40:16;21.73;;;19.83;;
71091;SDS011;58751;50.708;7.134;2022-07-12T00:42:42;23.13;;;21.17;;
71091;SDS011;58751;50.708;7.134;2022-07-12T00:45:07;22.70;;;20.77;;
71091;SDS011;58751;50.708;7.134;2022-07-12T00:47:33;23.20;;;21.10;;
71091;SDS011;58751;50.708;7.134;2022-07-12T00:49:59;21.27;;;19.47;;
71091;SDS011;58751;50.708;7.134;2022-07-12T00:52:24;21.90;;;19.90;;
71091;SDS011;58751;50.708;7.134;2022-07-12T00:54:49;20.17;;;18.47;;
71091;SDS011;58751;50.708;7.134;2022-07-12T00:57:16;21.20;;;19.40;;
71091;SDS011;58751;50.708;7.134;2022-07-12T00:59:41;20.83;;;19.02;;
71091;SDS011;58751;50.708;7.134;2022-07-12T01:02:07;23.50;;;21.33;;
71091;SDS011;58751;50.708;7.134;2022-07-12T01:04:32;22.60;;;20.57;;
71091;SDS011;58751;50.708;7.134;2022-07-12T01:06:57;22.00;;;19.97;;
71091;SDS011;58751;50.708;7.134;2022-07-12T01:09:23;23.57;;;21.43;;
71091;SDS011;58751;50.708;7.134;2022-07-12T01:11:48;21.33;;;19.53;;
71091;SDS011;58751;50.708;7.134;2022-07-12T01:14:15;19.00;;;17.37;;
71091;SDS011;58751;50.708;7.134;2022-07-12T01:16:40;19.77;;;18.15;;
71091;SDS011;58751;50.708;7.134;2022-07-12T01:19:06;21.07;;;19.27;;
71091;SDS011;58751;50.708;7.134;2022-07-12T01:21:31;23.13;;;20.97;;
71091;SDS011;58751;50.708;7.134;2022-07-12T01:24:00;20.95;;;19.15;;
71091;SDS011;58751;50.708;7.134;2022-07-12T01:26:25;22.45;;;20.25;;
71091;SDS011;58751;50.708;7.134;2022-07-12T01:28:51;20.92;;;19.08;;
71091;SDS011;58751;50.708;7.134;2022-07-12T01:31:18;21.70;;;19.80;;
71091;SDS011;58751;50.708;7.134;2022-07-12T01:33:43;20.23;;;18.40;;
71091;SDS011;58751;50.708;7.134;2022-07-12T01:36:08;20.47;;;18.63;;
71091;SDS011;58751;50.708;7.134;2022-07-12T01:38:34;22.10;;;20.03;;
71091;SDS011;58751;50.708;7.134;2022-07-12T01:41:00;21.27;;;19.47;;
71091;SDS011;58751;50.708;7.134;2022-07-12T01:43:26;20.50;;;18.75;;
71091;SDS011;58751;50.708;7.134;2022-07-12T01:45:51;21.63;;;19.73;;
71091;SDS011;58751;50.708;7.134;2022-07-12T01:48:16;20.43;;;18.63;;
71091;SDS011;58751;50.708;7.134;2022-07-12T01:50:42;21.83;;;19.93;;
71091;SDS011;58751;50.708;7.134;2022-07-12T01:53:07;21.77;;;19.80;;
71091;SDS011;58751;50.708;7.134;2022-07-12T01:55:32;22.17;;;20.20;;
71091;SDS011;58751;50.708;7.134;2022-07-12T01:57:59;22.50;;;20.50;;
71091;SDS011;58751;50.708;7.134;2022-07-12T02:00:25;23.50;;;21.40;;
71091;SDS011;58751;50.708;7.134;2022-07-12T02:02:51;22.30;;;20.30;;
71091;SDS011;58751;50.708;7.134;2022-07-12T02:05:16;22.93;;;20.83;;
71091;SDS011;58751;50.708;7.134;2022-07-12T02:07:41;21.37;;;19.27;;
71091;SDS011;58751;50.708;7.134;2022-07-12T02:10:07;22.93;;;20.83;;
71091;SDS011;58751;50.708;7.134;2022-07-12T02:12:32;22.47;;;20.47;;
71091;SDS011;58751;50.708;7.134;2022-07-12T02:14:59;23.57;;;21.37;;
71091;SDS011;58751;50.708;7.134;2022-07-12T02:17:24;21.98;;;20.08;;
71091;SDS011;58751;50.708;7.134;2022-07-12T02:19:50;22.90;;;20.90;;
71091;SDS011;58751;50.708;7.134;2022-07-12T02:22:15;21.77;;;19.77;;
71091;SDS011;58751;50.708;7.134;2022-07-12T02:24:40;20.43;;;18.70;;
71091;SDS011;58751;50.708;7.134;2022-07-12T02:27:05;19.70;;;17.93;;
71091;SDS011;58751;50.708;7.134;2022-07-12T02:29:31;18.97;;;17.20;;
71091;SDS011;58751;50.708;7.134;2022-07-12T02:31:57;20.87;;;18.97;;
71091;SDS011;58751;50.708;7.134;2022-07-12T02:34:23;20.58;;;18.77;;
71091;SDS011;58751;50.708;7.134;2022-07-12T02:36:48;18.70;;;17.00;;
71091;SDS011;58751;50.708;7.134;2022-07-12T02:39:13;19.33;;;17.57;;
71091;SDS011;58751;50.708;7.134;2022-07-12T02:41:38;21.40;;;19.50;;
71091;SDS011;58751;50.708;7.134;2022-07-12T02:44:04;20.00;;;18.27;;
71091;SDS011;58751;50.708;7.134;2022-07-12T02:46:29;19.73;;;18.00;;
71091;SDS011;58751;50.708;7.134;2022-07-12T02:48:55;20.97;;;19.07;;
71091;SDS011;58751;50.708;7.134;2022-07-12T02:51:21;20.38;;;18.67;;
71091;SDS011;58751;50.708;7.134;2022-07-12T02:53:46;21.80;;;19.90;;
71091;SDS011;58751;50.708;7.134;2022-07-12T02:56:11;21.30;;;19.40;;
71091;SDS011;58751;50.708;7.134;2022-07-12T02:58:36;24.37;;;21.97;;
71091;SDS011;58751;50.708;7.134;2022-07-12T03:01:02;19.30;;;17.50;;
71091;SDS011;58751;50.708;7.134;2022-07-12T03:03:27;22.33;;;20.20;;
71091;SDS011;58751;50.708;7.134;2022-07-12T03:05:54;21.33;;;19.43;;
71091;SDS011;58751;50.708;7.134;2022-07-12T03:08:19;23.02;;;20.80;;
71091;SDS011;58751;50.708;7.134;2022-07-12T03:10:44;21.57;;;19.43;;
71091;SDS011;58751;50.708;7.134;2022-07-12T03:13:10;20.93;;;18.90;;
71091;SDS011;58751;50.708;7.134;2022-07-12T03:15:35;21.67;;;19.50;;
71091;SDS011;58751;50.708;7.134;2022-07-12T03:18:00;23.13;;;21.03;;
71091;SDS011;58751;50.708;7.134;2022-07-12T03:20:26;19.40;;;17.70;;
71091;SDS011;58751;50.708;7.134;2022-07-12T03:22:53;18.70;;;17.00;;
71091;SDS011;58751;50.708;7.134;2022-07-12T03:25:18;19.90;;;18.13;;
71091;SDS011;58751;50.708;7.134;2022-07-12T03:27:43;21.97;;;19.87;;
71091;SDS011;58751;50.708;7.134;2022-07-12T03:30:09;21.70;;;19.70;;
71091;SDS011;58751;50.708;7.134;2022-07-12T03:32:35;21.13;;;19.13;;
71091;SDS011;58751;50.708;7.134;2022-07-12T03:35:00;21.40;;;19.50;;
71091;SDS011;58751;50.708;7.134;2022-07-12T03:37:25;22.90;;;20.70;;
71091;SDS011;58751;50.708;7.134;2022-07-12T03:39:52;21.50;;;19.50;;
71091;SDS011;58751;50.708;7.134;2022-07-12T03:42:17;20.77;;;18.80;;
71091;SDS011;58751;50.708;7.134;2022-07-12T03:44:42;23.03;;;20.73;;
71091;SDS011;58751;50.708;7.134;2022-07-12T03:47:07;20.00;;;18.20;;
71091;SDS011;58751;50.708;7.134;2022-07-12T03:49:33;22.90;;;20.77;;
71091;SDS011;58751;50.708;7.134;2022-07-12T03:51:58;22.63;;;20.53;;
71091;SDS011;58751;50.708;7.134;2022-07-12T03:54:23;24.17;;;21.77;;
71091;SDS011;58751;50.708;7.134;2022-07-12T03:56:50;20.77;;;18.70;;
71091;SDS011;58751;50.708;7.134;2022-07-12T03:59:15;22.05;;;20.08;;
71091;SDS011;58751;50.708;7.134;2022-07-12T04:01:40;22.67;;;20.63;;
71091;SDS011;58751;50.708;7.134;2022-07-12T04:04:05;23.63;;;21.47;;
71091;SDS011;58751;50.708;7.134;2022-07-12T04:06:30;22.03;;;19.93;;
71091;SDS011;58751;50.708;7.134;2022-07-12T04:08:56;23.00;;;20.80;;
71091;SDS011;58751;50.708;7.134;2022-07-12T04:11:21;20.23;;;18.43;;
71091;SDS011;58751;50.708;7.134;2022-07-12T04:13:48;21.10;;;19.07;;
71091;SDS011;58751;50.708;7.134;2022-07-12T04:16:13;21.17;;;19.17;;
71091;SDS011;58751;50.708;7.134;2022-07-12T04:18:38;21.67;;;19.83;;
71091;SDS011;58751;50.708;7.134;2022-07-12T04:21:03;21.90;;;19.70;;
71091;SDS011;58751;50.708;7.134;2022-07-12T04:23:29;21.33;;;19.23;;
71091;SDS011;58751;50.708;7.134;2022-07-12T04:25:54;20.70;;;18.77;;
71091;SDS011;58751;50.708;7.134;2022-07-12T04:28:19;20.47;;;18.57;;
71091;SDS011;58751;50.708;7.134;2022-07-12T04:30:46;21.00;;;19.17;;
71091;SDS011;58751;50.708;7.134;2022-07-12T04:33:11;20.33;;;18.42;;
71091;SDS011;58751;50.708;7.134;2022-07-12T04:35:36;22.57;;;20.57;;
71091;SDS011;58751;50.708;7.134;2022-07-12T04:38:01;20.63;;;18.40;;
71091;SDS011;58751;50.708;7.134;2022-07-12T04:40:27;20.10;;;18.30;;
71091;SDS011;58751;50.708;7.134;2022-07-12T04:42:52;20.70;;;18.97;;
71091;SDS011;58751;50.708;7.134;2022-07-12T04:45:17;20.87;;;19.13;;
71091;SDS011;58751;50.708;7.134;2022-07-12T04:47:44;21.77;;;19.83;;
71091;SDS011;58751;50.708;7.134;2022-07-12T04:50:09;21.05;;;18.88;;
71091;SDS011;58751;50.708;7.134;2022-07-12T04:52:34;19.10;;;17.40;;
71091;SDS011;58751;50.708;7.134;2022-07-12T04:54:59;21.33;;;19.47;;
71091;SDS011;58751;50.708;7.134;2022-07-12T04:57:25;21.17;;;19.07;;
71091;SDS011;58751;50.708;7.134;2022-07-12T04:59:50;21.13;;;19.23;;
71091;SDS011;58751;50.708;7.134;2022-07-12T05:02:15;20.10;;;18.30;;
71091;SDS011;58751;50.708;7.134;2022-07-12T05:04:42;19.43;;;17.70;;
71091;SDS011;58751;50.708;7.134;2022-07-12T05:07:07;22.25;;;20.13;;
71091;SDS011;58751;50.708;7.134;2022-07-12T05:09:32;20.70;;;18.90;;
71091;SDS011;58751;50.708;7.134;2022-07-12T05:11:57;19.00;;;17.40;;
71091;SDS011;58751;50.708;7.134;2022-07-12T05:14:23;19.60;;;17.80;;
71091;SDS011;58751;50.708;7.134;2022-07-12T05:16:48;20.43;;;18.60;;
71091;SDS011;58751;50.708;7.134;2022-07-12T05:19:13;20.10;;;18.40;;
71091;SDS011;58751;50.708;7.134;2022-07-12T05:21:40;18.73;;;17.13;;
71091;SDS011;58751;50.708;7.134;2022-07-12T05:24:05;18.40;;;16.90;;
71091;SDS011;58751;50.708;7.134;2022-07-12T05:26:31;17.63;;;16.20;;
71091;SDS011;58751;50.708;7.134;2022-07-12T05:28:56;18.07;;;16.53;;
71091;SDS011;58751;50.708;7.134;2022-07-12T05:31:21;17.13;;;15.93;;
71091;SDS011;58751;50.708;7.134;2022-07-12T05:33:46;17.57;;;16.13;;
71091;SDS011;58751;50.708;7.134;2022-07-12T05:36:11;16.57;;;15.23;;
71091;SDS011;58751;50.708;7.134;2022-07-12T05:38:38;17.17;;;15.47;;
71091;SDS011;58751;50.708;7.134;2022-07-12T05:41:03;20.10;;;18.47;;
71091;SDS011;58751;50.708;7.134;2022-07-12T05:43:29;20.87;;;19.03;;
71091;SDS011;58751;50.708;7.134;2022-07-12T05:45:54;21.03;;;19.23;;
71091;SDS011;58751;50.708;7.134;2022-07-12T05:48:20;19.77;;;18.17;;
71091;SDS011;58751;50.708;7.134;2022-07-12T05:50:45;18.13;;;16.63;;
71091;SDS011;58751;50.708;7.134;2022-07-12T05:53:11;19.10;;;17.60;;
71091;SDS011;58751;50.708;7.134;2022-07-12T05:55:37;18.97;;;17.37;;
71091;SDS011;58751;50.708;7.134;2022-07-12T05:58:03;19.53;;;17.83;;
71091;SDS011;58751;50.708;7.134;2022-07-12T06:00:28;20.23;;;18.50;;
71091;SDS011;58751;50.708;7.134;2022-07-12T06:02:53;19.87;;;18.23;;
71091;SDS011;58751;50.708;7.134;2022-07-12T06:05:18;19.90;;;18.00;;
71091;SDS011;58751;50.708;7.134;2022-07-12T06:07:44;20.10;;;18.20;;
71091;SDS011;58751;50.708;7.134;2022-07-12T06:10:09;23.17;;;20.80;;
71091;SDS011;58751;50.708;7.134;2022-07-12T06:12:35;19.60;;;17.80;;
71091;SDS011;58751;50.708;7.134;2022-07-12T06:15:01;20.40;;;18.57;;
71091;SDS011;58751;50.708;7.134;2022-07-12T06:17:26;18.13;;;16.63;;
71091;SDS011;58751;50.708;7.134;2022-07-12T06:19:51;19.20;;;17.43;;
71091;SDS011;58751;50.708;7.134;2022-07-12T06:22:16;20.10;;;18.37;;
71091;SDS011;58751;50.708;7.134;2022-07-12T06:24:42;18.57;;;16.97;;
71091;SDS011;58751;50.708;7.134;2022-07-12T06:27:07;17.77;;;16.47;;
71091;SDS011;58751;50.708;7.134;2022-07-12T06:29:33;19.50;;;17.90;;
71091;SDS011;58751;50.708;7.134;2022-07-12T06:31:59;18.70;;;17.30;;
71091;SDS011;58751;50.708;7.134;2022-07-12T06:34:24;18.57;;;17.17;;
71091;SDS011;58751;50.708;7.134;2022-07-12T06:36:49;18.70;;;17.20;;
71091;SDS011;58751;50.708;7.134;2022-07-12T06:39:14;16.97;;;15.73;;
71091;SDS011;58751;50.708;7.134;2022-07-12T06:41:40;17.10;;;15.80;;
71091;SDS011;58751;50.708;7.134;2022-07-12T06:44:05;16.40;;;15.20;;
71091;SDS011;58751;50.708;7.134;2022-07-12T06:46:31;16.23;;;15.03;;
71091;SDS011;58751;50.708;7.134;2022-07-12T06:48:57;17.17;;;15.87;;
71091;SDS011;58751;50.708;7.134;2022-07-12T06:51:22;17.67;;;16.47;;
71091;SDS011;58751;50.708;7.134;2022-07-12T06:53:47;15.60;;;14.27;;
71091;SDS011;58751;50.708;7.134;2022-07-12T06:56:12;15.93;;;14.83;;
71091;SDS011;58751;50.708;7.134;2022-07-12T06:58:37;17.80;;;16.40;;
71091;SDS011;58751;50.708;7.134;2022-07-12T07:01:03;15.70;;;14.60;;
71091;SDS011;58751;50.708;7.134;2022-07-12T07:03:29;15.47;;;14.47;;
71091;SDS011;58751;50.708;7.134;2022-07-12T07:05:54;16.30;;;15.10;;
71091;SDS011;58751;50.708;7.134;2022-07-12T07:08:20;14.73;;;13.73;;
71091;SDS011;58751;50.708;7.134;2022-07-12T07:10:45;15.03;;;13.93;;
71091;SDS011;58751;50.708;7.134;2022-07-12T07:13:10;14.47;;;13.47;;
71091;SDS011;58751;50.708;7.134;2022-07-12T07:15:35;12.63;;;11.83;;
71091;SDS011;58751;50.708;7.134;2022-07-12T07:18:01;12.00;;;11.20;;
71091;SDS011;58751;50.708;7.134;2022-07-12T07:20:27;12.77;;;11.77;;
71091;SDS011;58751;50.708;7.134;2022-07-12T07:22:52;10.30;;;9.63;;
71091;SDS011;58751;50.708;7.134;2022-07-12T07:25:18;10.57;;;9.97;;
71091;SDS011;58751;50.708;7.134;2022-07-12T07:27:43;10.40;;;9.80;;
71091;SDS011;58751;50.708;7.134;2022-07-12T07:30:08;9.40;;;8.80;;
71091;SDS011;58751;50.708;7.134;2022-07-12T07:32:34;9.07;;;8.47;;
71091;SDS011;58751;50.708;7.134;2022-07-12T07:34:59;8.67;;;8.17;;
71091;SDS011;58751;50.708;7.134;2022-07-12T07:37:25;8.33;;;7.73;;
71091;SDS011;58751;50.708;7.134;2022-07-12T07:39:51;7.23;;;6.83;;
71091;SDS011;58751;50.708;7.134;2022-07-12T07:42:16;6.70;;;6.40;;
71091;SDS011;58751;50.708;7.134;2022-07-12T07:44:41;6.50;;;6.10;;
71091;SDS011;58751;50.708;7.134;2022-07-12T07:47:06;6.63;;;6.23;;
71091;SDS011;58751;50.708;7.134;2022-07-12T07:49:32;4.87;;;4.63;;
71091;SDS011;58751;50.708;7.134;2022-07-12T07:51:57;6.27;;;5.87;;
71091;SDS011;58751;50.708;7.134;2022-07-12T07:54:23;6.03;;;5.70;;
71091;SDS011;58751;50.708;7.134;2022-07-12T07:56:49;6.00;;;5.60;;
71091;SDS011;58751;50.708;7.134;2022-07-12T07:59:14;6.73;;;6.23;;
71091;SDS011;58751;50.708;7.134;2022-07-12T08:01:39;6.70;;;6.17;;
71091;SDS011;58751;50.708;7.134;2022-07-12T08:04:04;6.43;;;6.03;;
71091;SDS011;58751;50.708;7.134;2022-07-12T08:06:29;6.60;;;6.17;;
71091;SDS011;58751;50.708;7.134;2022-07-12T08:08:55;7.47;;;6.97;;
71091;SDS011;58751;50.708;7.134;2022-07-12T08:11:21;7.43;;;7.03;;
71091;SDS011;58751;50.708;7.134;2022-07-12T08:13:46;7.30;;;6.70;;
71091;SDS011;58751;50.708;7.134;2022-07-12T08:16:12;6.30;;;5.90;;
71091;SDS011;58751;50.708;7.134;2022-07-12T08:18:37;5.03;;;4.77;;
71091;SDS011;58751;50.708;7.134;2022-07-12T08:21:02;5.53;;;5.23;;
71091;SDS011;58751;50.708;7.134;2022-07-12T08:23:27;5.17;;;4.83;;
71091;SDS011;58751;50.708;7.134;2022-07-12T08:25:53;5.33;;;4.53;;
71091;SDS011;58751;50.708;7.134;2022-07-12T08:28:19;5.53;;;4.90;;
71091;SDS011;58751;50.708;7.134;2022-07-12T08:30:44;5.77;;;5.47;;
71091;SDS011;58751;50.708;7.134;2022-07-12T08:33:10;4.97;;;4.67;;
71091;SDS011;58751;50.708;7.134;2022-07-12T08:35:35;4.10;;;3.90;;
71091;SDS011;58751;50.708;7.134;2022-07-12T08:38:00;4.93;;;4.63;;
71091;SDS011;58751;50.708;7.134;2022-07-12T08:40:25;5.10;;;4.13;;
71091;SDS011;58751;50.708;7.134;2022-07-12T08:42:50;3.40;;;3.10;;
71091;SDS011;58751;50.708;7.134;2022-07-12T08:45:17;4.70;;;4.40;;
71091;SDS011;58751;50.708;7.134;2022-07-12T08:47:42;4.20;;;3.80;;
71091;SDS011;58751;50.708;7.134;2022-07-12T08:50:11;3.40;;;3.07;;
71091;SDS011;58751;50.708;7.134;2022-07-12T08:52:38;3.60;;;3.30;;
71091;SDS011;58751;50.708;7.134;2022-07-12T08:55:05;2.90;;;2.80;;
71091;SDS011;58751;50.708;7.134;2022-07-12T08:57:40;3.50;;;3.30;;
71091;SDS011;58751;50.708;7.134;2022-07-12T09:00:05;3.70;;;3.50;;
71091;SDS011;58751;50.708;7.134;2022-07-12T09:02:34;3.50;;;3.30;;
71091;SDS011;58751;50.708;7.134;2022-07-12T09:05:07;3.33;;;3.13;;
71091;SDS011;58751;50.708;7.134;2022-07-12T09:07:34;2.93;;;2.73;;
71091;SDS011;58751;50.708;7.134;2022-07-12T09:10:00;3.20;;;2.50;;
71091;SDS011;58751;50.708;7.134;2022-07-12T09:12:27;2.33;;;2.23;;
71091;SDS011;58751;50.708;7.134;2022-07-12T09:14:52;2.40;;;2.20;;
71091;SDS011;58751;50.708;7.134;2022-07-12T09:17:17;2.43;;;2.20;;
71091;SDS011;58751;50.708;7.134;2022-07-12T09:19:54;3.03;;;2.60;;
71091;SDS011;58751;50.708;7.134;2022-07-12T09:22:20;3.03;;;2.03;;
71091;SDS011;58751;50.708;7.134;2022-07-12T09:24:45;2.70;;;2.50;;
71091;SDS011;58751;50.708;7.134;2022-07-12T09:27:10;3.60;;;2.50;;
71091;SDS011;58751;50.708;7.134;2022-07-12T09:29:45;2.63;;;2.53;;
71091;SDS011;58751;50.708;7.134;2022-07-12T09:32:11;2.10;;;2.00;;
71091;SDS011;58751;50.708;7.134;2022-07-12T09:34:36;2.50;;;2.17;;
71091;SDS011;58751;50.708;7.134;2022-07-12T09:37:03;2.37;;;2.27;;
71091;SDS011;58751;50.708;7.134;2022-07-12T09:39:28;2.27;;;2.17;;
71091;SDS011;58751;50.708;7.134;2022-07-12T09:41:54;2.30;;;2.10;;
71091;SDS011;58751;50.708;7.134;2022-07-12T09:44:19;2.10;;;2.00;;
71091;SDS011;58751;50.708;7.134;2022-07-12T09:46:45;2.17;;;2.07;;
71091;SDS011;58751;50.708;7.134;2022-07-12T09:49:11;2.00;;;1.90;;
71091;SDS011;58751;50.708;7.134;2022-07-12T09:51:37;2.00;;;1.90;;
71091;SDS011;58751;50.708;7.134;2022-07-12T09:54:09;2.60;;;1.70;;
71091;SDS011;58751;50.708;7.134;2022-07-12T09:56:36;2.13;;;2.03;;
71091;SDS011;58751;50.708;7.134;2022-07-12T09:59:05;2.57;;;2.47;;
71091;SDS011;58751;50.708;7.134;2022-07-12T10:01:32;2.60;;;2.40;;
71091;SDS011;58751;50.708;7.134;2022-07-12T10:03:59;9.43;;;2.73;;
71091;SDS011;58751;50.708;7.134;2022-07-12T10:06:25;3.77;;;2.97;;
71091;SDS011;58751;50.708;7.134;2022-07-12T10:08:51;2.27;;;2.17;;
71091;SDS011;58751;50.708;7.134;2022-07-12T10:11:18;3.67;;;3.47;;
71091;SDS011;58751;50.708;7.134;2022-07-12T10:13:43;3.30;;;3.10;;
71091;SDS011;58751;50.708;7.134;2022-07-12T10:16:09;3.03;;;2.83;;
71091;SDS011;58751;50.708;7.134;2022-07-12T10:18:35;2.90;;;2.77;;
71091;SDS011;58751;50.708;7.134;2022-07-12T10:21:02;3.10;;;2.90;;
71091;SDS011;58751;50.708;7.134;2022-07-12T10:23:41;2.40;;;2.30;;
71091;SDS011;58751;50.708;7.134;2022-07-12T10:26:24;3.10;;;2.70;;
71091;SDS011;58751;50.708;7.134;2022-07-12T10:28:59;3.70;;;2.50;;
71091;SDS011;58751;50.708;7.134;2022-07-12T10:31:24;2.77;;;2.57;;
71091;SDS011;58751;50.708;7.134;2022-07-12T10:34:08;3.90;;;2.30;;
71091;SDS011;58751;50.708;7.134;2022-07-12T10:36:39;2.40;;;2.30;;
71091;SDS011;58751;50.708;7.134;2022-07-12T10:39:24;3.07;;;2.87;;
71091;SDS011;58751;50.708;7.134;2022-07-12T10:44:34;3.67;;;2.70;;
71091;SDS011;58751;50.708;7.134;2022-07-12T10:47:00;3.23;;;3.03;;
71091;SDS011;58751;50.708;7.134;2022-07-12T10:49:26;2.47;;;2.37;;
71091;SDS011;58751;50.708;7.134;2022-07-12T10:54:35;3.13;;;2.93;;
71091;SDS011;58751;50.708;7.134;2022-07-12T10:57:01;2.17;;;2.07;;
71091;SDS011;58751;50.708;7.134;2022-07-12T10:59:26;2.30;;;2.10;;
71091;SDS011;58751;50.708;7.134;2022-07-12T11:01:52;1.90;;;1.80;;
71091;SDS011;58751;50.708;7.134;2022-07-12T11:04:20;2.33;;;1.97;;
71091;SDS011;58751;50.708;7.134;2022-07-12T11:06:45;1.97;;;1.87;;
71091;SDS011;58751;50.708;7.134;2022-07-12T11:09:11;1.77;;;1.67;;
71091;SDS011;58751;50.708;7.134;2022-07-12T11:11:39;2.27;;;2.00;;
71091;SDS011;58751;50.708;7.134;2022-07-12T11:14:05;2.30;;;2.20;;
71091;SDS011;58751;50.708;7.134;2022-07-12T11:16:30;2.10;;;2.00;;
71091;SDS011;58751;50.708;7.134;2022-07-12T11:18:57;2.13;;;2.03;;
71091;SDS011;58751;50.708;7.134;2022-07-12T11:21:22;2.00;;;1.90;;
71091;SDS011;58751;50.708;7.134;2022-07-12T11:23:48;2.63;;;1.73;;
71091;SDS011;58751;50.708;7.134;2022-07-12T11:26:13;2.40;;;2.30;;
71091;SDS011;58751;50.708;7.134;2022-07-12T11:28:39;2.10;;;1.83;;
71091;SDS011;58751;50.708;7.134;2022-07-12T11:31:05;2.47;;;1.80;;
71091;SDS011;58751;50.708;7.134;2022-07-12T11:33:32;2.37;;;2.27;;
71091;SDS011;58751;50.708;7.134;2022-07-12T11:35:59;2.07;;;1.80;;
71091;SDS011;58751;50.708;7.134;2022-07-12T11:38:25;1.97;;;1.77;;
71091;SDS011;58751;50.708;7.134;2022-07-12T11:40:53;2.27;;;2.17;;
71091;SDS011;58751;50.708;7.134;2022-07-12T11:43:19;3.43;;;1.73;;
71091;SDS011;58751;50.708;7.134;2022-07-12T11:45:45;2.33;;;1.67;;
71091;SDS011;58751;50.708;7.134;2022-07-12T11:48:11;1.80;;;1.70;;
71091;SDS011;58751;50.708;7.134;2022-07-12T11:50:36;2.70;;;1.90;;
71091;SDS011;58751;50.708;7.134;2022-07-12T11:53:03;2.00;;;1.90;;
71091;SDS011;58751;50.708;7.134;2022-07-12T11:55:28;2.10;;;2.00;;
71091;SDS011;58751;50.708;7.134;2022-07-12T11:58:02;1.73;;;1.63;;
71091;SDS011;58751;50.708;7.134;2022-07-12T12:00:28;2.20;;;2.00;;
71091;SDS011;58751;50.708;7.134;2022-07-12T12:02:53;1.73;;;1.63;;
71091;SDS011;58751;50.708;7.134;2022-07-12T12:05:18;2.37;;;1.90;;
71091;SDS011;58751;50.708;7.134;2022-07-12T12:07:44;1.73;;;1.63;;
71091;SDS011;58751;50.708;7.134;2022-07-12T12:10:11;1.83;;;1.73;;
71091;SDS011;58751;50.708;7.134;2022-07-12T12:12:37;1.70;;;1.60;;
71091;SDS011;58751;50.708;7.134;2022-07-12T12:15:04;1.80;;;1.70;;
71091;SDS011;58751;50.708;7.134;2022-07-12T12:17:29;2.47;;;2.27;;
71091;SDS011;58751;50.708;7.134;2022-07-12T12:19:54;1.80;;;1.50;;
71091;SDS011;58751;50.708;7.134;2022-07-12T12:22:32;1.93;;;1.83;;
71091;SDS011;58751;50.708;7.134;2022-07-12T12:24:58;1.50;;;1.50;;
71091;SDS011;58751;50.708;7.134;2022-07-12T12:27:24;1.43;;;1.33;;
71091;SDS011;58751;50.708;7.134;2022-07-12T12:29:50;1.73;;;1.63;;
71091;SDS011;58751;50.708;7.134;2022-07-12T12:32:16;1.63;;;1.53;;
71091;SDS011;58751;50.708;7.134;2022-07-12T12:34:42;2.30;;;1.73;;
71091;SDS011;58751;50.708;7.134;2022-07-12T12:37:07;1.70;;;1.30;;
71091;SDS011;58751;50.708;7.134;2022-07-12T12:39:32;1.80;;;1.70;;
71091;SDS011;58751;50.708;7.134;2022-07-12T12:41:57;1.20;;;1.20;;
71091;SDS011;58751;50.708;7.134;2022-07-12T12:44:24;1.73;;;1.63;;
71091;SDS011;58751;50.708;7.134;2022-07-12T12:46:52;1.60;;;1.50;;
71091;SDS011;58751;50.708;7.134;2022-07-12T12:49:18;1.70;;;1.60;;
71091;SDS011;58751;50.708;7.134;2022-07-12T12:51:53;2.00;;;1.30;;
71091;SDS011;58751;50.708;7.134;2022-07-12T12:54:30;2.60;;;1.40;;
71091;SDS011;58751;50.708;7.134;2022-07-12T12:56:55;1.70;;;1.60;;
71091;SDS011;58751;50.708;7.134;2022-07-12T12:59:20;2.20;;;2.10;;
71091;SDS011;58751;50.708;7.134;2022-07-12T13:01:47;1.60;;;1.57;;
71091;SDS011;58751;50.708;7.134;2022-07-12T13:04:12;1.90;;;1.80;;
71091;SDS011;58751;50.708;7.134;2022-07-12T13:06:37;4.27;;;1.80;;
71091;SDS011;58751;50.708;7.134;2022-07-12T13:09:02;1.63;;;1.53;;
71091;SDS011;58751;50.708;7.134;2022-07-12T13:11:28;1.60;;;1.50;;
71091;SDS011;58751;50.708;7.134;2022-07-12T13:13:53;1.30;;;1.30;;
71091;SDS011;58751;50.708;7.134;2022-07-12T13:16:18;1.87;;;1.77;;
71091;SDS011;58751;50.708;7.134;2022-07-12T13:18:45;1.30;;;1.30;;
71091;SDS011;58751;50.708;7.134;2022-07-12T13:21:10;2.10;;;1.90;;
71091;SDS011;58751;50.708;7.134;2022-07-12T13:23:35;1.80;;;1.70;;
71091;SDS011;58751;50.708;7.134;2022-07-12T13:26:00;1.53;;;1.40;;
71091;SDS011;58751;50.708;7.134;2022-07-12T13:28:26;1.70;;;1.60;;
71091;SDS011;58751;50.708;7.134;2022-07-12T13:30:51;1.83;;;1.73;;
71091;SDS011;58751;50.708;7.134;2022-07-12T13:33:16;2.00;;;1.90;;
71091;SDS011;58751;50.708;7.134;2022-07-12T13:35:43;2.23;;;1.93;;
71091;SDS011;58751;50.708;7.134;2022-07-12T13:38:08;2.17;;;1.97;;
71091;SDS011;58751;50.708;7.134;2022-07-12T13:40:33;1.70;;;1.60;;
71091;SDS011;58751;50.708;7.134;2022-07-12T13:42:59;1.53;;;1.43;;
71091;SDS011;58751;50.708;7.134;2022-07-12T13:45:25;1.73;;;1.63;;
71091;SDS011;58751;50.708;7.134;2022-07-12T13:47:51;1.00;;;1.00;;
71091;SDS011;58751;50.708;7.134;2022-07-12T13:50:17;4.00;;;1.53;;
71091;SDS011;58751;50.708;7.134;2022-07-12T13:52:44;1.63;;;1.53;;
71091;SDS011;58751;50.708;7.134;2022-07-12T13:55:10;1.90;;;1.70;;
71091;SDS011;58751;50.708;7.134;2022-07-12T13:57:36;1.60;;;1.50;;
71091;SDS011;58751;50.708;7.134;2022-07-12T14:00:03;1.27;;;1.27;;
71091;SDS011;58751;50.708;7.134;2022-07-12T14:02:28;1.73;;;1.63;;
71091;SDS011;58751;50.708;7.134;2022-07-12T14:04:53;1.90;;;1.80;;
71091;SDS011;58751;50.708;7.134;2022-07-12T14:07:18;1.50;;;1.50;;
71091;SDS011;58751;50.708;7.134;2022-07-12T14:09:45;2.60;;;1.70;;
71091;SDS011;58751;50.708;7.134;2022-07-12T14:12:10;1.50;;;1.50;;
71091;SDS011;58751;50.708;7.134;2022-07-12T14:14:36;1.77;;;1.67;;
71091;SDS011;58751;50.708;7.134;2022-07-12T14:17:02;1.80;;;1.70;;
71091;SDS011;58751;50.708;7.134;2022-07-12T14:19:27;1.80;;;1.70;;
71091;SDS011;58751;50.708;7.134;2022-07-12T14:21:52;1.80;;;1.70;;
71091;SDS011;58751;50.708;7.134;2022-07-12T14:24:17;2.50;;;1.77;;
71091;SDS011;58751;50.708;7.134;2022-07-12T14:26:44;1.97;;;1.80;;
71091;SDS011;58751;50.708;7.134;2022-07-12T14:29:09;2.13;;;1.90;;
71091;SDS011;58751;50.708;7.134;2022-07-12T14:31:34;3.03;;;1.83;;